createdAt,value
2019-03-06T00:00:37.145Z,100440.92
2019-03-06T00:03:05.711Z,100435.55
2019-03-06T00:05:34.014Z,100441.26
2019-03-06T00:08:02.302Z,100444.72
2019-03-06T00:10:31.200Z,100441.63
2019-03-06T00:12:59.464Z,100454.16
2019-03-06T00:15:27.757Z,100445.09
2019-03-06T00:17:56.094Z,100444.17
2019-03-06T00:20:24.329Z,100452.94
2019-03-06T00:22:52.592Z,100446.52
2019-03-06T00:25:20.892Z,100447.55
2019-03-06T00:27:49.174Z,100452.40
2019-03-06T00:30:18.598Z,100450.70
2019-03-06T00:32:46.880Z,100450.19
2019-03-06T00:35:28.811Z,100449.89
2019-03-06T00:37:57.112Z,100451.63
2019-03-06T00:40:44.862Z,100454.27
2019-03-06T00:43:13.160Z,100455.55
2019-03-06T00:45:41.455Z,100461.39
2019-03-06T00:48:09.734Z,100456.51
2019-03-06T00:50:38.024Z,100453.89
2019-03-06T00:53:06.383Z,100461.22
2019-03-06T00:55:34.683Z,100460.47
2019-03-06T00:58:02.977Z,100463.12
2019-03-06T01:00:31.249Z,100459.35
2019-03-06T01:02:59.543Z,100464.44
2019-03-06T01:05:28.007Z,100464.81
2019-03-06T01:07:56.300Z,100468.27
2019-03-06T01:10:24.599Z,100464.00
2019-03-06T01:12:52.953Z,100466.34
2019-03-06T01:15:21.703Z,100464.57
2019-03-06T01:17:50.173Z,100466.17
2019-03-06T01:20:18.478Z,100471.33
2019-03-06T01:22:46.767Z,100462.30
2019-03-06T01:25:19.862Z,100463.66
2019-03-06T01:27:48.155Z,100458.41
2019-03-06T01:30:19.425Z,100463.19
2019-03-06T01:32:49.449Z,100463.59
2019-03-06T01:35:19.376Z,100462.71
2019-03-06T01:37:55.079Z,100465.73
2019-03-06T01:40:28.194Z,100460.91
2019-03-06T01:43:00.772Z,100458.44
2019-03-06T01:45:29.062Z,100458.03
2019-03-06T01:47:57.345Z,100454.09
2019-03-06T01:50:25.660Z,100454.53
2019-03-06T01:52:53.946Z,100450.27
2019-03-06T01:55:22.214Z,100458.47
2019-03-06T01:57:50.530Z,100461.86
2019-03-06T02:00:19.077Z,100461.25
2019-03-06T02:02:47.365Z,100455.69
2019-03-06T02:05:16.419Z,100458.20
2019-03-06T02:07:44.785Z,100451.63
2019-03-06T02:10:14.315Z,100451.14
2019-03-06T02:12:42.978Z,100444.33
2019-03-06T02:15:16.530Z,100451.55
2019-03-06T02:17:44.899Z,100451.08
2019-03-06T02:20:16.392Z,100445.52
2019-03-06T02:22:44.717Z,100445.88
2019-03-06T02:25:13.064Z,100448.02
2019-03-06T02:27:41.637Z,100453.17
2019-03-06T02:30:18.735Z,100444.26
2019-03-06T02:32:47.026Z,100441.78
2019-03-06T02:35:15.290Z,100440.02
2019-03-06T02:37:43.588Z,100432.36
2019-03-06T02:40:12.219Z,100430.55
2019-03-06T02:42:40.536Z,100426.65
2019-03-06T02:45:21.301Z,100424.21
2019-03-06T02:47:49.583Z,100418.75
2019-03-06T02:50:18.518Z,100425.98
2019-03-06T02:52:46.856Z,100425.16
2019-03-06T02:55:16.978Z,100421.16
2019-03-06T02:57:52.615Z,100417.63
2019-03-06T03:00:35.425Z,100417.89
2019-03-06T03:03:09.766Z,100422.20
2019-03-06T03:05:39.675Z,100421.90
2019-03-06T03:08:08.026Z,100427.42
2019-03-06T03:10:36.301Z,100418.27
2019-03-06T03:13:04.603Z,100412.04
2019-03-06T03:15:32.897Z,100406.77
2019-03-06T03:18:01.324Z,100402.42
2019-03-06T03:20:29.599Z,100407.51
2019-03-06T03:22:57.890Z,100408.25
2019-03-06T03:25:26.352Z,100405.55
2019-03-06T03:27:54.639Z,100409.02
2019-03-06T03:30:22.944Z,100405.19
2019-03-06T03:32:51.197Z,100410.56
2019-03-06T03:35:19.465Z,100412.19
2019-03-06T03:37:47.738Z,100407.36
2019-03-06T03:40:16.577Z,100410.34
2019-03-06T03:42:44.895Z,100411.48
2019-03-06T03:45:15.063Z,100409.39
2019-03-06T03:47:43.428Z,100408.88
2019-03-06T03:50:11.769Z,100393.83
2019-03-06T03:52:40.406Z,100406.17
2019-03-06T03:55:11.425Z,100406.62
2019-03-06T03:57:39.727Z,100404.59
2019-03-06T04:00:14.027Z,100415.39
2019-03-06T04:02:42.398Z,100404.23
2019-03-06T04:05:11.989Z,100397.98
2019-03-06T04:07:40.296Z,100397.88
2019-03-06T04:10:13.381Z,100395.05
2019-03-06T04:12:41.661Z,100402.75
2019-03-06T04:15:12.858Z,100401.09
2019-03-06T04:17:41.148Z,100401.02
2019-03-06T04:20:12.338Z,100393.27
2019-03-06T04:22:40.634Z,100392.55
2019-03-06T04:25:09.855Z,100395.93
2019-03-06T04:27:38.136Z,100394.16
2019-03-06T04:30:16.344Z,100395.48
2019-03-06T04:32:44.688Z,100388.19
2019-03-06T04:35:13.004Z,100379.20
2019-03-06T04:37:41.278Z,100383.11
2019-03-06T04:40:11.969Z,100379.16
2019-03-06T04:42:40.720Z,100375.89
2019-03-06T04:45:13.745Z,100374.59
2019-03-06T04:47:57.118Z,100379.60
2019-03-06T04:50:25.597Z,100379.20
2019-03-06T04:52:53.878Z,100385.13
2019-03-06T04:55:22.170Z,100381.22
2019-03-06T04:57:50.457Z,100374.98
2019-03-06T05:00:24.837Z,100372.41
2019-03-06T05:02:53.259Z,100365.63
2019-03-06T05:05:21.541Z,100362.60
2019-03-06T05:07:49.871Z,100360.06
2019-03-06T05:10:18.158Z,100369.20
2019-03-06T05:12:46.460Z,100366.44
2019-03-06T05:15:15.595Z,100360.80
2019-03-06T05:17:48.310Z,100363.33
2019-03-06T05:20:17.072Z,100364.58
2019-03-06T05:22:45.350Z,100368.81
2019-03-06T05:25:13.640Z,100369.30
2019-03-06T05:27:41.925Z,100367.08
2019-03-06T05:30:14.219Z,100366.67
2019-03-06T05:32:42.535Z,100370.51
2019-03-06T05:35:39.292Z,100361.92
2019-03-06T05:38:13.547Z,100359.70
2019-03-06T05:40:41.824Z,100357.81
2019-03-06T05:43:10.101Z,100356.97
2019-03-06T05:45:38.407Z,100352.20
2019-03-06T05:48:06.696Z,100344.30
2019-03-06T05:50:35.002Z,100345.06
2019-03-06T05:53:03.276Z,100344.00
2019-03-06T05:55:31.550Z,100343.93
2019-03-06T05:57:59.861Z,100341.87
2019-03-06T06:00:29.917Z,100336.66
2019-03-06T06:02:58.210Z,100333.16
2019-03-06T06:05:26.477Z,100337.88
2019-03-06T06:07:54.781Z,100329.16
2019-03-06T06:10:23.057Z,100325.55
2019-03-06T06:12:51.515Z,100322.38
2019-03-06T06:15:19.790Z,100311.53
2019-03-06T06:17:48.082Z,100308.41
2019-03-06T06:20:16.354Z,100314.56
2019-03-06T06:22:48.998Z,100307.89
2019-03-06T06:25:17.288Z,100304.55
2019-03-06T06:27:45.592Z,100306.73
2019-03-06T06:30:14.832Z,100304.47
2019-03-06T06:32:43.132Z,100298.41
2019-03-06T06:35:12.562Z,100291.77
2019-03-06T06:37:41.030Z,100283.53
2019-03-06T06:40:11.861Z,100287.19
2019-03-06T06:42:40.139Z,100291.81
2019-03-06T06:45:13.603Z,100286.06
2019-03-06T06:48:10.362Z,100289.25
2019-03-06T06:51:01.516Z,100286.81
2019-03-06T06:53:36.973Z,100281.42
2019-03-06T06:56:20.065Z,100278.30
2019-03-06T06:58:57.384Z,100273.97
2019-03-06T07:01:42.161Z,100275.92
2019-03-06T07:04:27.055Z,100263.80
2019-03-06T07:06:57.147Z,100269.08
2019-03-06T07:09:27.076Z,100260.44
2019-03-06T07:11:57.024Z,100258.94
2019-03-06T07:14:35.753Z,100266.25
2019-03-06T07:17:05.869Z,100263.27
2019-03-06T07:19:35.789Z,100268.53
2019-03-06T07:22:11.167Z,100263.56
2019-03-06T07:24:58.686Z,100258.39
2019-03-06T07:27:31.077Z,100257.00
2019-03-06T07:30:03.629Z,100265.42
2019-03-06T07:32:33.558Z,100258.35
2019-03-06T07:35:55.755Z,100269.89
2019-03-06T07:38:24.302Z,100263.87
2019-03-06T07:40:56.872Z,100263.33
2019-03-06T07:43:35.796Z,100260.98
2019-03-06T07:46:21.583Z,100255.59
2019-03-06T07:48:54.248Z,100260.63
2019-03-06T07:51:24.151Z,100254.40
2019-03-06T07:54:08.222Z,100245.34
2019-03-06T07:56:41.503Z,100243.09
2019-03-06T07:59:09.773Z,100244.73
2019-03-06T08:01:41.183Z,100235.06
2019-03-06T08:04:11.876Z,100231.88
2019-03-06T08:06:41.879Z,100229.38
2019-03-06T08:09:15.412Z,100227.84
2019-03-06T08:12:00.458Z,100232.48
2019-03-06T08:14:39.315Z,100233.80
2019-03-06T08:17:09.232Z,100227.11
2019-03-06T08:19:55.153Z,100220.47
2019-03-06T08:22:30.856Z,100216.70
2019-03-06T08:25:03.712Z,100213.73
2019-03-06T08:27:31.985Z,100208.50
2019-03-06T08:30:00.561Z,100208.72
2019-03-06T08:32:29.895Z,100204.73
2019-03-06T08:34:58.186Z,100206.80
2019-03-06T08:37:26.480Z,100211.65
2019-03-06T08:39:54.845Z,100207.38
2019-03-06T08:42:23.137Z,100212.61
2019-03-06T08:44:51.420Z,100213.22
2019-03-06T08:47:33.479Z,100209.00
2019-03-06T08:50:03.422Z,100199.84
2019-03-06T08:52:33.360Z,100190.98
2019-03-06T08:55:10.945Z,100184.90
2019-03-06T08:57:40.992Z,100181.98
2019-03-06T09:00:32.427Z,100177.36
2019-03-06T09:03:03.874Z,100177.42
2019-03-06T09:05:44.833Z,100180.29
2019-03-06T09:08:33.931Z,100170.16
2019-03-06T09:11:06.528Z,100165.98
2019-03-06T09:13:36.897Z,100159.11
2019-03-06T09:16:06.808Z,100162.76
2019-03-06T09:18:39.645Z,100167.09
2019-03-06T09:21:15.217Z,100175.59
2019-03-06T09:23:47.850Z,100179.47
2019-03-06T09:26:20.712Z,100165.69
2019-03-06T09:29:08.464Z,100160.55
2019-03-06T09:31:38.381Z,100156.10
2019-03-06T09:34:11.253Z,100150.52
2019-03-06T09:36:46.977Z,100132.81
2019-03-06T09:39:22.518Z,100130.81
2019-03-06T09:41:54.869Z,100132.69
2019-03-06T09:44:39.736Z,100123.30
2019-03-06T09:47:12.295Z,100112.70
2019-03-06T09:49:51.021Z,100101.86
2019-03-06T09:52:20.932Z,100099.84
2019-03-06T09:54:55.044Z,100092.77
2019-03-06T09:57:31.020Z,100076.66
2019-03-06T10:00:09.984Z,100081.84
2019-03-06T10:02:49.017Z,100077.97
2019-03-06T10:05:21.739Z,100069.11
2019-03-06T10:07:51.666Z,100073.89
2019-03-06T10:10:24.406Z,100059.80
2019-03-06T10:12:54.337Z,100060.18
2019-03-06T10:15:27.204Z,100055.00
2019-03-06T10:17:57.134Z,100058.25
2019-03-06T10:20:25.986Z,100051.54
2019-03-06T10:22:54.871Z,100046.59
2019-03-06T10:25:29.991Z,100046.27
2019-03-06T10:27:54.348Z,100049.78
2019-03-06T10:30:22.632Z,100041.84
2019-03-06T10:32:51.084Z,100043.53
2019-03-06T10:35:19.442Z,100031.44
2019-03-06T10:37:47.984Z,100026.44
2019-03-06T10:40:17.909Z,100037.09
2019-03-06T10:42:46.188Z,100047.92
2019-03-06T10:45:17.833Z,100041.95
2019-03-06T10:47:46.488Z,100032.78
2019-03-06T10:50:26.255Z,100023.98
2019-03-06T10:52:48.164Z,100028.27
2019-03-06T10:55:18.102Z,100033.95
2019-03-06T10:57:46.379Z,100028.97
2019-03-06T11:00:27.579Z,100023.16
2019-03-06T11:02:56.996Z,100023.64
2019-03-06T11:05:29.965Z,100021.75
2019-03-06T11:07:58.968Z,100014.00
2019-03-06T11:10:27.791Z,100002.50
2019-03-06T11:12:58.070Z,100000.89
2019-03-06T11:15:26.419Z,99986.49
2019-03-06T11:17:54.698Z,99977.05
2019-03-06T11:20:29.672Z,99980.59
2019-03-06T11:22:59.297Z,99968.37
2019-03-06T11:25:28.046Z,99955.93
2019-03-06T11:27:56.378Z,99951.34
2019-03-06T11:30:33.413Z,99954.81
2019-03-06T11:33:01.802Z,99937.41
2019-03-06T11:35:30.244Z,99938.52
2019-03-06T11:37:58.570Z,99939.27
2019-03-06T11:40:27.008Z,99926.62
2019-03-06T11:42:55.314Z,99916.05
2019-03-06T11:45:23.648Z,99914.27
2019-03-06T11:47:51.999Z,99905.52
2019-03-06T11:50:20.326Z,99907.59
2019-03-06T11:52:48.676Z,99899.02
2019-03-06T11:55:18.185Z,99885.98
2019-03-06T11:57:46.519Z,99879.19
2019-03-06T12:00:26.323Z,99881.98
2019-03-06T12:02:54.677Z,99876.78
2019-03-06T12:05:23.532Z,99870.43
2019-03-06T12:07:51.801Z,99862.98
2019-03-06T12:10:20.929Z,99855.97
2019-03-06T12:12:49.214Z,99848.05
2019-03-06T12:15:17.469Z,99847.40
2019-03-06T12:17:45.755Z,99848.98
2019-03-06T12:20:14.039Z,99831.75
2019-03-06T12:22:42.314Z,99836.72
2019-03-06T12:25:11.819Z,99833.23
2019-03-06T12:27:40.103Z,99825.87
2019-03-06T12:30:14.073Z,99818.78
2019-03-06T12:32:42.352Z,99823.44
2019-03-06T12:35:10.777Z,99831.16
2019-03-06T12:37:46.654Z,99809.92
2019-03-06T12:40:15.131Z,99806.48
2019-03-06T12:42:43.421Z,99795.57
2019-03-06T12:45:14.298Z,99805.47
2019-03-06T12:47:43.515Z,99801.34
2019-03-06T12:50:14.965Z,99793.25
2019-03-06T12:52:43.256Z,99800.42
2019-03-06T12:55:11.980Z,99778.48
2019-03-06T12:57:40.242Z,99768.98
2019-03-06T13:00:19.804Z,99770.48
2019-03-06T13:02:48.086Z,99758.36
2019-03-06T13:05:16.591Z,99740.21
2019-03-06T13:07:44.856Z,99726.92
2019-03-06T13:10:14.875Z,99708.83
2019-03-06T13:12:43.415Z,99681.13
2019-03-06T13:15:14.678Z,99682.13
2019-03-06T13:17:42.958Z,99687.66
2019-03-06T13:20:12.682Z,99682.61
2019-03-06T13:22:43.988Z,99688.45
2019-03-06T13:25:15.504Z,99692.51
2019-03-06T13:27:43.783Z,99678.16
2019-03-06T13:30:16.300Z,99651.45
2019-03-06T13:32:58.207Z,99660.62
2019-03-06T13:35:27.545Z,99650.28
2019-03-06T13:37:55.800Z,99635.21
2019-03-06T13:40:24.084Z,99635.15
2019-03-06T13:42:52.356Z,99632.05
2019-03-06T13:45:20.766Z,99631.19
2019-03-06T13:47:50.960Z,99640.11
2019-03-06T13:50:19.021Z,99630.56
2019-03-06T13:52:47.291Z,99624.56
2019-03-06T13:55:16.617Z,99618.55
2019-03-06T13:57:45.472Z,99614.48
2019-03-06T14:00:21.809Z,99608.91
2019-03-06T14:02:51.233Z,99611.15
2019-03-06T14:05:20.436Z,99602.38
2019-03-06T14:07:56.010Z,99593.03
2019-03-06T14:10:24.352Z,99575.72
2019-03-06T14:12:53.101Z,99568.61
2019-03-06T14:15:21.536Z,99567.89
2019-03-06T14:17:49.816Z,99571.55
2019-03-06T14:20:22.400Z,99575.64
2019-03-06T14:22:50.838Z,99579.35
2019-03-06T14:25:19.176Z,99566.92
2019-03-06T14:27:47.776Z,99572.48
2019-03-06T14:30:26.652Z,99562.09
2019-03-06T14:32:54.941Z,99554.05
2019-03-06T14:35:23.679Z,99544.12
2019-03-06T14:37:51.950Z,99538.89
2019-03-06T14:40:28.400Z,99536.07
2019-03-06T14:42:56.843Z,99518.73
2019-03-06T14:45:25.242Z,99525.75
2019-03-06T14:47:53.525Z,99524.27
2019-03-06T14:50:21.787Z,99499.59
2019-03-06T14:52:50.060Z,99494.81
2019-03-06T14:55:18.792Z,99496.73
2019-03-06T14:57:47.059Z,99497.02
2019-03-06T15:00:20.047Z,99497.02
2019-03-06T15:02:48.390Z,99473.04
2019-03-06T15:05:17.707Z,99468.07
2019-03-06T15:07:46.048Z,99455.62
2019-03-06T15:10:16.628Z,99458.56
2019-03-06T15:12:44.906Z,99458.81
2019-03-06T15:15:15.990Z,99450.37
2019-03-06T15:17:44.350Z,99445.25
2019-03-06T15:20:24.604Z,99440.17
2019-03-06T15:22:54.109Z,99436.84
2019-03-06T15:25:23.739Z,99428.89
2019-03-06T15:27:52.013Z,99422.47
2019-03-06T15:30:20.551Z,99417.25
2019-03-06T15:32:50.549Z,99407.73
2019-03-06T15:35:19.109Z,99406.30
2019-03-06T15:37:47.396Z,99405.85
2019-03-06T15:40:19.433Z,99394.07
2019-03-06T15:42:47.861Z,99404.80
2019-03-06T15:45:17.761Z,99393.15
2019-03-06T15:47:46.067Z,99381.95
2019-03-06T15:50:15.291Z,99378.73
2019-03-06T15:52:43.603Z,99378.73
2019-03-06T15:55:15.704Z,99370.29
2019-03-06T15:57:43.970Z,99381.70
2019-03-06T16:00:21.915Z,99374.67
2019-03-06T16:02:50.355Z,99374.67
2019-03-06T16:05:19.514Z,99388.65
2019-03-06T16:07:47.910Z,99382.82
2019-03-06T16:10:16.341Z,99379.70
2019-03-06T16:12:46.099Z,99367.84
2019-03-06T16:15:14.504Z,99369.55
2019-03-06T16:17:42.791Z,99362.23
2019-03-06T16:20:16.072Z,99370.64
2019-03-06T16:22:44.997Z,99360.45
2019-03-06T16:25:13.756Z,99358.57
2019-03-06T16:27:42.037Z,99351.54
2019-03-06T16:30:16.650Z,99357.84
2019-03-06T16:32:44.931Z,99364.01
2019-03-06T16:35:13.452Z,99371.34
2019-03-06T16:37:41.799Z,99371.16
2019-03-06T16:40:18.548Z,99366.19
2019-03-06T16:42:47.643Z,99368.55
2019-03-06T16:45:18.729Z,99364.73
2019-03-06T16:47:47.006Z,99376.39
2019-03-06T16:50:17.434Z,99360.53
2019-03-06T16:52:45.928Z,99365.38
2019-03-06T16:55:16.675Z,99370.44
2019-03-06T16:57:45.182Z,99354.90
2019-03-06T17:00:22.551Z,99351.52
2019-03-06T17:02:51.097Z,99353.19
2019-03-06T17:05:20.505Z,99348.66
2019-03-06T17:07:49.808Z,99353.98
2019-03-06T17:10:20.010Z,99350.90
2019-03-06T17:12:48.623Z,99357.25
2019-03-06T17:15:17.992Z,99349.89
2019-03-06T17:17:46.432Z,99344.83
2019-03-06T17:20:18.020Z,99342.62
2019-03-06T17:22:46.693Z,99343.57
2019-03-06T17:25:15.208Z,99349.11
2019-03-06T17:27:43.826Z,99349.62
2019-03-06T17:30:17.728Z,99348.27
2019-03-06T17:32:56.862Z,99348.55
2019-03-06T17:35:25.532Z,99360.03
2019-03-06T17:37:54.146Z,99367.69
2019-03-06T17:40:22.413Z,99363.94
2019-03-06T17:42:50.764Z,99368.51
2019-03-06T17:45:19.029Z,99363.14
2019-03-06T17:47:47.299Z,99357.64
2019-03-06T17:50:16.772Z,99362.62
2019-03-06T17:52:45.127Z,99360.58
2019-03-06T17:55:14.532Z,99356.66
2019-03-06T17:57:42.812Z,99358.94
2019-03-06T18:00:16.842Z,99362.12
2019-03-06T18:02:43.671Z,99365.17
2019-03-06T18:05:12.129Z,99362.46
2019-03-06T18:07:40.404Z,99356.62
2019-03-06T18:10:14.536Z,99353.39
2019-03-06T18:12:42.805Z,99346.88
2019-03-06T18:15:13.211Z,99342.70
2019-03-06T18:17:41.647Z,99341.77
2019-03-06T18:20:12.564Z,99327.28
2019-03-06T18:22:40.849Z,99325.67
2019-03-06T18:25:14.344Z,99324.02
2019-03-06T18:27:42.725Z,99324.67
2019-03-06T18:30:13.529Z,99324.52
2019-03-06T18:32:42.160Z,99315.01
2019-03-06T18:35:12.479Z,99312.69
2019-03-06T18:37:40.777Z,99310.63
2019-03-06T18:40:17.847Z,99300.22
2019-03-06T18:42:46.165Z,99290.06
2019-03-06T18:45:16.280Z,99290.94
2019-03-06T18:47:44.583Z,99285.67
2019-03-06T18:50:15.662Z,99280.00
2019-03-06T18:52:43.938Z,99280.27
2019-03-06T18:55:13.850Z,99268.75
2019-03-06T18:57:42.112Z,99264.19
2019-03-06T19:00:16.075Z,99259.16
2019-03-06T19:02:44.368Z,99250.98
2019-03-06T19:05:13.086Z,99255.06
2019-03-06T19:07:41.344Z,99251.52
2019-03-06T19:10:12.812Z,99250.89
2019-03-06T19:12:41.082Z,99253.75
2019-03-06T19:15:12.605Z,99247.77
2019-03-06T19:17:40.874Z,99241.67
2019-03-06T19:20:09.429Z,99242.13
2019-03-06T19:22:37.713Z,99236.61
2019-03-06T19:25:08.639Z,99236.45
2019-03-06T19:27:36.912Z,99235.31
2019-03-06T19:30:20.609Z,99230.23
2019-03-06T19:32:49.036Z,99229.53
2019-03-06T19:35:17.950Z,99231.15
2019-03-06T19:37:46.293Z,99221.58
2019-03-06T19:40:16.108Z,99224.02
2019-03-06T19:42:44.560Z,99216.93
2019-03-06T19:45:15.080Z,99225.36
2019-03-06T19:47:43.350Z,99225.13
2019-03-06T19:50:14.420Z,99224.19
2019-03-06T19:52:42.691Z,99223.09
2019-03-06T19:55:11.700Z,99217.30
2019-03-06T19:57:51.687Z,99221.45
2019-03-06T20:00:21.091Z,99214.53
2019-03-06T20:02:49.625Z,99208.86
2019-03-06T20:05:18.436Z,99196.41
2019-03-06T20:07:47.225Z,99207.09
2019-03-06T20:10:15.523Z,99196.95
2019-03-06T20:12:43.985Z,99190.89
2019-03-06T20:15:14.403Z,99188.20
2019-03-06T20:17:42.688Z,99195.28
2019-03-06T20:20:12.900Z,99190.34
2019-03-06T20:22:41.247Z,99185.13
2019-03-06T20:25:10.581Z,99182.25
2019-03-06T20:27:38.981Z,99178.55
2019-03-06T20:30:20.567Z,99170.55
2019-03-06T20:32:48.897Z,99165.12
2019-03-06T20:35:22.266Z,99154.09
2019-03-06T20:37:50.769Z,99146.06
2019-03-06T20:40:19.074Z,99145.75
2019-03-06T20:42:47.700Z,99146.48
2019-03-06T20:45:17.114Z,99145.70
2019-03-06T20:47:46.538Z,99146.78
2019-03-06T20:50:19.426Z,99134.36
2019-03-06T20:52:50.099Z,99140.38
2019-03-06T20:55:17.830Z,99133.99
2019-03-06T20:57:46.107Z,99127.67
2019-03-06T21:00:16.149Z,99125.83
2019-03-06T21:02:44.428Z,99124.75
2019-03-06T21:05:12.711Z,99118.19
2019-03-06T21:07:45.036Z,99112.77
2019-03-06T21:10:13.999Z,99108.29
2019-03-06T21:12:43.859Z,99096.89
2019-03-06T21:15:17.066Z,99096.25
2019-03-06T21:17:45.360Z,99098.39
2019-03-06T21:20:16.132Z,99097.70
2019-03-06T21:22:44.417Z,99090.25
2019-03-06T21:25:17.277Z,99087.75
2019-03-06T21:27:45.640Z,99082.77
2019-03-06T21:30:20.570Z,99085.00
2019-03-06T21:32:48.848Z,99077.55
2019-03-06T21:35:17.188Z,99077.66
2019-03-06T21:37:45.489Z,99080.91
2019-03-06T21:40:13.750Z,99079.75
2019-03-06T21:42:42.039Z,99079.14
2019-03-06T21:45:12.118Z,99078.59
2019-03-06T21:47:40.384Z,99076.09
2019-03-06T21:50:12.053Z,99081.42
2019-03-06T21:52:40.361Z,99073.27
2019-03-06T21:55:13.681Z,99070.31
2019-03-06T21:57:41.958Z,99077.48
2019-03-06T22:00:16.358Z,99073.60
2019-03-06T22:02:44.983Z,99062.90
2019-03-06T22:05:13.325Z,99064.59
2019-03-06T22:07:41.610Z,99066.88
2019-03-06T22:10:16.200Z,99066.15
2019-03-06T22:12:44.395Z,99062.35
2019-03-06T22:15:16.597Z,99059.25
2019-03-06T22:17:44.861Z,99055.41
2019-03-06T22:20:14.837Z,99062.20
2019-03-06T22:22:43.179Z,99054.17
2019-03-06T22:25:13.098Z,99057.03
2019-03-06T22:27:41.370Z,99056.53
2019-03-06T22:30:15.530Z,99048.39
2019-03-06T22:32:43.805Z,99044.78
2019-03-06T22:35:12.094Z,99042.31
2019-03-06T22:37:40.366Z,99041.02
2019-03-06T22:40:13.959Z,99031.28
2019-03-06T22:42:42.228Z,99030.48
2019-03-06T22:45:12.839Z,99026.72
2019-03-06T22:47:41.153Z,99027.55
2019-03-06T22:50:11.847Z,99020.72
2019-03-06T22:52:40.123Z,99030.39
2019-03-06T22:55:11.002Z,99026.24
2019-03-06T22:57:39.270Z,99016.38
2019-03-06T23:00:30.869Z,99015.83
2019-03-06T23:02:59.287Z,99011.22
2019-03-06T23:05:29.077Z,99007.31
2019-03-06T23:07:57.353Z,99004.97
2019-03-06T23:10:25.614Z,99004.95
2019-03-06T23:12:53.906Z,99004.84
2019-03-06T23:15:22.170Z,98995.27
2019-03-06T23:17:50.447Z,98991.13
2019-03-06T23:20:18.723Z,98987.59
2019-03-06T23:22:47.007Z,98988.28
2019-03-06T23:25:15.290Z,98987.94
2019-03-06T23:27:43.566Z,98987.70
2019-03-06T23:30:13.467Z,98987.09
2019-03-06T23:32:41.743Z,98986.50
2019-03-06T23:35:10.085Z,98983.44
2019-03-06T23:37:38.368Z,98978.00
2019-03-06T23:40:09.659Z,98984.52
2019-03-06T23:42:37.930Z,98981.09
2019-03-06T23:45:09.381Z,98983.32
2019-03-06T23:47:37.831Z,98974.80
2019-03-06T23:50:08.145Z,98970.53
2019-03-06T23:52:38.055Z,98967.70
2019-03-06T23:55:06.385Z,98962.23
2019-03-06T23:57:34.754Z,98953.94
